CheckWX is a tool to help pilots better visualize weather data.  It is not intended as a substitute for an official pre-flight weather briefing.

21:38:29 UTC

MTPP TAF
Toussaint Louverture International Airport
Port-au-Prince, Haiti
TAF MTPP 201700Z 2018/2118 30015KT 9000 FEW028 PROB40 TEMPO 2102/2106 4500 SHRA SCT022CB BKN040 BECMG 2108/2112 VRB02KT 9000 FEW020 BECMG 2114/2117 09010KT

Mar-20@
18:00 UTC

Mar-20 @ 18:00 UTC

Mar-21@
08:00 UTC

Mar-21 @ 08:00 UTC

TAF MTPP 201700Z 2018/2118 30015KT 9000 FEW028
Wind
  • 300° at 15 KTS
Cloud Levels
  • Few at 2,800' AGL

Mar-21@
02:00 UTC

Mar-21 @ 02:00 UTC

Mar-21@
06:00 UTC

Mar-21 @ 06:00 UTC

PROB40 TEMPO 2102/2106 4500 SHRA SCT022CB BKN040

Temporary - 40% Likelihood

Temporary - 40% Likelihood during this time.

Conditions
Rain
Cloud Levels
  • Scattered at 2,200' AGL
  • Broken at 4,000' AGL

Mar-21@
08:00 UTC

Mar-21 @ 08:00 UTC

Mar-21@
14:00 UTC

Mar-21 @ 14:00 UTC

BECMG 2108/2112 VRB02KT 9000 FEW020

Becoming

Becoming Conditions expected by Thu, Mar 21, 2019 @ 12:00 UTC

Wind
  • Variable at 2 KTS
Cloud Levels
  • Few at 2,000' AGL

Mar-21@
14:00 UTC

Mar-21 @ 14:00 UTC

Mar-21@
18:00 UTC

Mar-21 @ 18:00 UTC

BECMG 2114/2117 09010KT

Becoming

Becoming Conditions expected by Thu, Mar 21, 2019 @ 17:00 UTC

Wind
  • 090° at 10 KTS
Cloud Levels
  • Few at 2,000' AGL